<?xml version="1.0" encoding="UTF-8" standalone="no" ?>
<gpx xmlns="http://www.topografix.com/GPX/1/1" xmlns:xsi="http://www.w3.org/2001/XMLSchema-instance" xsi:schemaLocation="http://www.topografix.com/GPX/1/1 http://www.topografix.com/GPX/1/1/gpx.xsd" version="1.1" creator="VisuGPX - https://www.visugpx.com">
  <metadata>
    <name>GR738 - Jour 4 - De l'Aup Bernard à Fond de France</name>
    <desc><![CDATA[Steve Farrugia (5899279)]]></desc>
  </metadata>
  <trk>
    <name><![CDATA[Steve Farrugia (5899279)]]></name>
    <desc><![CDATA[Steve Farrugia (5899279)]]></desc>
    <extensions>
      <line xmlns="http://www.topografix.com/GPX/gpx_style/0/2">
        <color>0000FF</color>
        <width>4</width>
      </line>
    </extensions>
    <trkseg>
      <trkpt lat="45.34386" lon="6.1316">
        <ele>1557.66</ele>
        <time>2022-07-19T06:11:00Z</time>
      </trkpt>
      <trkpt lat="45.34386" lon="6.13161">
        <ele>1558</ele>
        <time>2022-07-19T06:11:04Z</time>
      </trkpt>
      <trkpt lat="45.34386" lon="6.13161">
        <ele>1558</ele>
        <time>2022-07-19T06:11:04Z</time>
      </trkpt>
      <trkpt lat="45.34434" lon="6.1305">
        <ele>1540</ele>
        <time>2022-07-19T06:12:55Z</time>
      </trkpt>
      <trkpt lat="45.34441" lon="6.13035">
        <ele>1557.66</ele>
        <time>2022-07-19T06:13:00Z</time>
      </trkpt>
      <trkpt lat="45.34442" lon="6.13036">
        <ele>1557</ele>
        <time>2022-07-19T06:13:05Z</time>
      </trkpt>
      <trkpt lat="45.34446" lon="6.1297">
        <ele>1548</ele>
        <time>2022-07-19T06:13:55Z</time>
      </trkpt>
      <trkpt lat="45.34481" lon="6.12893">
        <ele>1543</ele>
        <time>2022-07-19T06:14:55Z</time>
      </trkpt>
      <trkpt lat="45.34486" lon="6.12891">
        <ele>1538.35</ele>
        <time>2022-07-19T06:15:00Z</time>
      </trkpt>
      <trkpt lat="45.34487" lon="6.12892">
        <ele>1540</ele>
        <time>2022-07-19T06:15:05Z</time>
      </trkpt>
      <trkpt lat="45.34509" lon="6.12835">
        <ele>1532</ele>
        <time>2022-07-19T06:15:55Z</time>
      </trkpt>
      <trkpt lat="45.34555" lon="6.12799">
        <ele>1514</ele>
        <time>2022-07-19T06:16:55Z</time>
      </trkpt>
      <trkpt lat="45.34561" lon="6.12782">
        <ele>1509.5</ele>
        <time>2022-07-19T06:17:00Z</time>
      </trkpt>
      <trkpt lat="45.34561" lon="6.12784">
        <ele>1509</ele>
        <time>2022-07-19T06:17:06Z</time>
      </trkpt>
      <trkpt lat="45.34599" lon="6.12741">
        <ele>1498</ele>
        <time>2022-07-19T06:17:54Z</time>
      </trkpt>
      <trkpt lat="45.34538" lon="6.12733">
        <ele>1480</ele>
        <time>2022-07-19T06:18:54Z</time>
      </trkpt>
      <trkpt lat="45.34524" lon="6.12732">
        <ele>1466.44</ele>
        <time>2022-07-19T06:19:00Z</time>
      </trkpt>
      <trkpt lat="45.34525" lon="6.12734">
        <ele>1466</ele>
        <time>2022-07-19T06:19:07Z</time>
      </trkpt>
      <trkpt lat="45.34539" lon="6.12695">
        <ele>1453</ele>
        <time>2022-07-19T06:19:52Z</time>
      </trkpt>
      <trkpt lat="45.34557" lon="6.12649">
        <ele>1462</ele>
        <time>2022-07-19T06:20:52Z</time>
      </trkpt>
      <trkpt lat="45.3453" lon="6.12602">
        <ele>1428.39</ele>
        <time>2022-07-19T06:21:45Z</time>
      </trkpt>
      <trkpt lat="45.3453" lon="6.12602">
        <ele>1429</ele>
        <time>2022-07-19T06:21:48Z</time>
      </trkpt>
      <trkpt lat="45.34532" lon="6.12599">
        <ele>1431</ele>
        <time>2022-07-19T06:21:51Z</time>
      </trkpt>
      <trkpt lat="45.34586" lon="6.12538">
        <ele>1411</ele>
        <time>2022-07-19T06:23:05Z</time>
      </trkpt>
      <trkpt lat="45.34553" lon="6.12527">
        <ele>1402.36</ele>
        <time>2022-07-19T06:23:45Z</time>
      </trkpt>
      <trkpt lat="45.34554" lon="6.12527">
        <ele>1403</ele>
        <time>2022-07-19T06:23:48Z</time>
      </trkpt>
      <trkpt lat="45.34498" lon="6.12521">
        <ele>1389</ele>
        <time>2022-07-19T06:24:45Z</time>
      </trkpt>
      <trkpt lat="45.34487" lon="6.12469">
        <ele>1370</ele>
        <time>2022-07-19T06:25:46Z</time>
      </trkpt>
      <trkpt lat="45.34483" lon="6.12461">
        <ele>1360</ele>
        <time>2022-07-19T06:26:46Z</time>
      </trkpt>
      <trkpt lat="45.34434" lon="6.12462">
        <ele>1350.58</ele>
        <time>2022-07-19T06:27:30Z</time>
      </trkpt>
      <trkpt lat="45.34435" lon="6.12463">
        <ele>1350</ele>
        <time>2022-07-19T06:27:42Z</time>
      </trkpt>
      <trkpt lat="45.34434" lon="6.12458">
        <ele>1349</ele>
        <time>2022-07-19T06:27:45Z</time>
      </trkpt>
      <trkpt lat="45.34396" lon="6.12468">
        <ele>1338</ele>
        <time>2022-07-19T06:28:45Z</time>
      </trkpt>
      <trkpt lat="45.34375" lon="6.12426">
        <ele>1322.5</ele>
        <time>2022-07-19T06:29:30Z</time>
      </trkpt>
      <trkpt lat="45.34375" lon="6.12427">
        <ele>1323</ele>
        <time>2022-07-19T06:29:42Z</time>
      </trkpt>
      <trkpt lat="45.34331" lon="6.12417">
        <ele>1311</ele>
        <time>2022-07-19T06:30:38Z</time>
      </trkpt>
      <trkpt lat="45.34272" lon="6.12389">
        <ele>1294.53</ele>
        <time>2022-07-19T06:31:30Z</time>
      </trkpt>
      <trkpt lat="45.34277" lon="6.12385">
        <ele>1296</ele>
        <time>2022-07-19T06:31:37Z</time>
      </trkpt>
      <trkpt lat="45.34272" lon="6.1239">
        <ele>1295</ele>
        <time>2022-07-19T06:31:43Z</time>
      </trkpt>
      <trkpt lat="45.34219" lon="6.12425">
        <ele>1283</ele>
        <time>2022-07-19T06:32:37Z</time>
      </trkpt>
      <trkpt lat="45.34147" lon="6.12434">
        <ele>1278.26</ele>
        <time>2022-07-19T06:33:30Z</time>
      </trkpt>
      <trkpt lat="45.34153" lon="6.12441">
        <ele>1277</ele>
        <time>2022-07-19T06:33:36Z</time>
      </trkpt>
      <trkpt lat="45.34147" lon="6.12436">
        <ele>1277</ele>
        <time>2022-07-19T06:33:44Z</time>
      </trkpt>
      <trkpt lat="45.34093" lon="6.1243">
        <ele>1275</ele>
        <time>2022-07-19T06:34:35Z</time>
      </trkpt>
      <trkpt lat="45.34021" lon="6.12405">
        <ele>1264</ele>
        <time>2022-07-19T06:35:35Z</time>
      </trkpt>
      <trkpt lat="45.34014" lon="6.124">
        <ele>1259.72</ele>
        <time>2022-07-19T06:35:45Z</time>
      </trkpt>
      <trkpt lat="45.34015" lon="6.124">
        <ele>1261</ele>
        <time>2022-07-19T06:35:45Z</time>
      </trkpt>
      <trkpt lat="45.33957" lon="6.124">
        <ele>1259</ele>
        <time>2022-07-19T06:36:34Z</time>
      </trkpt>
      <trkpt lat="45.33902" lon="6.12376">
        <ele>1245.84</ele>
        <time>2022-07-19T06:37:45Z</time>
      </trkpt>
      <trkpt lat="45.33903" lon="6.12377">
        <ele>1245</ele>
        <time>2022-07-19T06:37:45Z</time>
      </trkpt>
      <trkpt lat="45.33903" lon="6.12377">
        <ele>1245</ele>
        <time>2022-07-19T06:37:45Z</time>
      </trkpt>
      <trkpt lat="45.33846" lon="6.12372">
        <ele>1259</ele>
        <time>2022-07-19T06:39:26Z</time>
      </trkpt>
      <trkpt lat="45.33808" lon="6.12366">
        <ele>1252.78</ele>
        <time>2022-07-19T06:39:45Z</time>
      </trkpt>
      <trkpt lat="45.33808" lon="6.12366">
        <ele>1253</ele>
        <time>2022-07-19T06:39:49Z</time>
      </trkpt>
      <trkpt lat="45.33776" lon="6.1232">
        <ele>1203</ele>
        <time>2022-07-19T06:40:26Z</time>
      </trkpt>
      <trkpt lat="45.33703" lon="6.12278">
        <ele>1219</ele>
        <time>2022-07-19T06:41:26Z</time>
      </trkpt>
      <trkpt lat="45.33676" lon="6.12273">
        <ele>1215.87</ele>
        <time>2022-07-19T06:41:45Z</time>
      </trkpt>
      <trkpt lat="45.33676" lon="6.12275">
        <ele>1215</ele>
        <time>2022-07-19T06:41:50Z</time>
      </trkpt>
      <trkpt lat="45.33664" lon="6.12255">
        <ele>1231</ele>
        <time>2022-07-19T06:42:24Z</time>
      </trkpt>
      <trkpt lat="45.33659" lon="6.12261">
        <ele>1191</ele>
        <time>2022-07-19T06:43:24Z</time>
      </trkpt>
      <trkpt lat="45.33654" lon="6.12275">
        <ele>1208.97</ele>
        <time>2022-07-19T06:43:45Z</time>
      </trkpt>
      <trkpt lat="45.33655" lon="6.12275">
        <ele>1209</ele>
        <time>2022-07-19T06:43:50Z</time>
      </trkpt>
      <trkpt lat="45.33614" lon="6.1229">
        <ele>1208</ele>
        <time>2022-07-19T06:44:23Z</time>
      </trkpt>
      <trkpt lat="45.33565" lon="6.12362">
        <ele>1195</ele>
        <time>2022-07-19T06:45:26Z</time>
      </trkpt>
      <trkpt lat="45.33542" lon="6.12378">
        <ele>1190.61</ele>
        <time>2022-07-19T06:45:45Z</time>
      </trkpt>
      <trkpt lat="45.33542" lon="6.12379">
        <ele>1191</ele>
        <time>2022-07-19T06:45:51Z</time>
      </trkpt>
      <trkpt lat="45.33492" lon="6.12284">
        <ele>1163</ele>
        <time>2022-07-19T06:47:17Z</time>
      </trkpt>
      <trkpt lat="45.33479" lon="6.12233">
        <ele>1151.74</ele>
        <time>2022-07-19T06:47:45Z</time>
      </trkpt>
      <trkpt lat="45.3348" lon="6.12233">
        <ele>1152</ele>
        <time>2022-07-19T06:47:51Z</time>
      </trkpt>
      <trkpt lat="45.33474" lon="6.12194">
        <ele>1143</ele>
        <time>2022-07-19T06:48:17Z</time>
      </trkpt>
      <trkpt lat="45.33493" lon="6.12098">
        <ele>1122</ele>
        <time>2022-07-19T06:49:16Z</time>
      </trkpt>
      <trkpt lat="45.33494" lon="6.12052">
        <ele>1113.07</ele>
        <time>2022-07-19T06:49:45Z</time>
      </trkpt>
      <trkpt lat="45.33495" lon="6.12052">
        <ele>1113</ele>
        <time>2022-07-19T06:49:52Z</time>
      </trkpt>
      <trkpt lat="45.33493" lon="6.12034">
        <ele>1106</ele>
        <time>2022-07-19T06:50:15Z</time>
      </trkpt>
      <trkpt lat="45.33491" lon="6.12025">
        <ele>1105</ele>
        <time>2022-07-19T06:51:15Z</time>
      </trkpt>
      <trkpt lat="45.33474" lon="6.12029">
        <ele>1104.01</ele>
        <time>2022-07-19T06:51:45Z</time>
      </trkpt>
      <trkpt lat="45.33475" lon="6.12029">
        <ele>1105</ele>
        <time>2022-07-19T06:51:53Z</time>
      </trkpt>
      <trkpt lat="45.33413" lon="6.12">
        <ele>1100</ele>
        <time>2022-07-19T06:53:08Z</time>
      </trkpt>
      <trkpt lat="45.33375" lon="6.12014">
        <ele>1099.48</ele>
        <time>2022-07-19T06:53:45Z</time>
      </trkpt>
      <trkpt lat="45.33376" lon="6.12015">
        <ele>1100</ele>
        <time>2022-07-19T06:53:55Z</time>
      </trkpt>
      <trkpt lat="45.33401" lon="6.12012">
        <ele>1099</ele>
        <time>2022-07-19T06:54:08Z</time>
      </trkpt>
      <trkpt lat="45.3337" lon="6.1203">
        <ele>1099</ele>
        <time>2022-07-19T06:55:07Z</time>
      </trkpt>
      <trkpt lat="45.33345" lon="6.12037">
        <ele>1099.48</ele>
        <time>2022-07-19T06:55:45Z</time>
      </trkpt>
      <trkpt lat="45.33346" lon="6.12038">
        <ele>1100</ele>
        <time>2022-07-19T06:55:55Z</time>
      </trkpt>
      <trkpt lat="45.33339" lon="6.12044">
        <ele>1100</ele>
        <time>2022-07-19T06:56:07Z</time>
      </trkpt>
      <trkpt lat="45.33281" lon="6.12084">
        <ele>1100</ele>
        <time>2022-07-19T06:57:10Z</time>
      </trkpt>
      <trkpt lat="45.33252" lon="6.12119">
        <ele>1122.15</ele>
        <time>2022-07-19T06:57:45Z</time>
      </trkpt>
      <trkpt lat="45.33253" lon="6.12119">
        <ele>1122</ele>
        <time>2022-07-19T06:57:55Z</time>
      </trkpt>
      <trkpt lat="45.33196" lon="6.12145">
        <ele>1125</ele>
        <time>2022-07-19T06:59:02Z</time>
      </trkpt>
      <trkpt lat="45.33145" lon="6.12138">
        <ele>1106.27</ele>
        <time>2022-07-19T06:59:45Z</time>
      </trkpt>
      <trkpt lat="45.33146" lon="6.12139">
        <ele>1106</ele>
        <time>2022-07-19T06:59:56Z</time>
      </trkpt>
      <trkpt lat="45.33141" lon="6.12141">
        <ele>1109</ele>
        <time>2022-07-19T07:00:01Z</time>
      </trkpt>
      <trkpt lat="45.331" lon="6.12158">
        <ele>1112</ele>
        <time>2022-07-19T07:01:01Z</time>
      </trkpt>
      <trkpt lat="45.33062" lon="6.12166">
        <ele>1126.7</ele>
        <time>2022-07-19T07:01:45Z</time>
      </trkpt>
      <trkpt lat="45.33063" lon="6.12168">
        <ele>1127</ele>
        <time>2022-07-19T07:01:57Z</time>
      </trkpt>
      <trkpt lat="45.3302" lon="6.12184">
        <ele>1130</ele>
        <time>2022-07-19T07:02:54Z</time>
      </trkpt>
      <trkpt lat="45.32983" lon="6.12228">
        <ele>1140.35</ele>
        <time>2022-07-19T07:03:45Z</time>
      </trkpt>
      <trkpt lat="45.32983" lon="6.12227">
        <ele>1138</ele>
        <time>2022-07-19T07:03:54Z</time>
      </trkpt>
      <trkpt lat="45.32983" lon="6.12229">
        <ele>1140</ele>
        <time>2022-07-19T07:03:58Z</time>
      </trkpt>
      <trkpt lat="45.32951" lon="6.12259">
        <ele>1147</ele>
        <time>2022-07-19T07:04:53Z</time>
      </trkpt>
      <trkpt lat="45.32911" lon="6.12295">
        <ele>1156.3</ele>
        <time>2022-07-19T07:05:45Z</time>
      </trkpt>
      <trkpt lat="45.32916" lon="6.12294">
        <ele>1156</ele>
        <time>2022-07-19T07:05:52Z</time>
      </trkpt>
      <trkpt lat="45.32912" lon="6.12297">
        <ele>1156</ele>
        <time>2022-07-19T07:05:58Z</time>
      </trkpt>
      <trkpt lat="45.32888" lon="6.12338">
        <ele>1155</ele>
        <time>2022-07-19T07:06:52Z</time>
      </trkpt>
      <trkpt lat="45.32854" lon="6.12375">
        <ele>1175</ele>
        <time>2022-07-19T07:07:54Z</time>
      </trkpt>
      <trkpt lat="45.32813" lon="6.12387">
        <ele>1183.73</ele>
        <time>2022-07-19T07:08:45Z</time>
      </trkpt>
      <trkpt lat="45.32814" lon="6.12388">
        <ele>1183</ele>
        <time>2022-07-19T07:08:53Z</time>
      </trkpt>
      <trkpt lat="45.3278" lon="6.12416">
        <ele>1191</ele>
        <time>2022-07-19T07:09:52Z</time>
      </trkpt>
      <trkpt lat="45.32732" lon="6.12424">
        <ele>1199.79</ele>
        <time>2022-07-19T07:10:45Z</time>
      </trkpt>
      <trkpt lat="45.32732" lon="6.12425">
        <ele>1199</ele>
        <time>2022-07-19T07:10:55Z</time>
      </trkpt>
      <trkpt lat="45.32271" lon="6.12715">
        <ele>1338.86</ele>
        <time>2022-07-19T07:29:15Z</time>
      </trkpt>
      <trkpt lat="45.32272" lon="6.12717">
        <ele>1338</ele>
        <time>2022-07-19T07:29:21Z</time>
      </trkpt>
      <trkpt lat="45.32272" lon="6.12717">
        <ele>1338</ele>
        <time>2022-07-19T07:29:21Z</time>
      </trkpt>
      <trkpt lat="45.3223" lon="6.12764">
        <ele>1362</ele>
        <time>2022-07-19T07:30:20Z</time>
      </trkpt>
      <trkpt lat="45.32204" lon="6.1278">
        <ele>1369.36</ele>
        <time>2022-07-19T07:31:15Z</time>
      </trkpt>
      <trkpt lat="45.32205" lon="6.12781">
        <ele>1369</ele>
        <time>2022-07-19T07:31:19Z</time>
      </trkpt>
      <trkpt lat="45.32204" lon="6.12782">
        <ele>1369</ele>
        <time>2022-07-19T07:31:21Z</time>
      </trkpt>
      <trkpt lat="45.3217" lon="6.12799">
        <ele>1376</ele>
        <time>2022-07-19T07:32:19Z</time>
      </trkpt>
      <trkpt lat="45.32151" lon="6.12829">
        <ele>1385</ele>
        <time>2022-07-19T07:33:18Z</time>
      </trkpt>
      <trkpt lat="45.32147" lon="6.1287">
        <ele>1397</ele>
        <time>2022-07-19T07:35:05Z</time>
      </trkpt>
      <trkpt lat="45.32137" lon="6.12868">
        <ele>1399.99</ele>
        <time>2022-07-19T07:35:15Z</time>
      </trkpt>
      <trkpt lat="45.32138" lon="6.12868">
        <ele>1399</ele>
        <time>2022-07-19T07:35:20Z</time>
      </trkpt>
      <trkpt lat="45.32116" lon="6.12881">
        <ele>1405</ele>
        <time>2022-07-19T07:36:05Z</time>
      </trkpt>
      <trkpt lat="45.32087" lon="6.12885">
        <ele>1413</ele>
        <time>2022-07-19T07:37:05Z</time>
      </trkpt>
      <trkpt lat="45.32076" lon="6.12883">
        <ele>1414.18</ele>
        <time>2022-07-19T07:37:15Z</time>
      </trkpt>
      <trkpt lat="45.32077" lon="6.12884">
        <ele>1414</ele>
        <time>2022-07-19T07:37:20Z</time>
      </trkpt>
      <trkpt lat="45.32053" lon="6.12898">
        <ele>1420</ele>
        <time>2022-07-19T07:38:05Z</time>
      </trkpt>
      <trkpt lat="45.32032" lon="6.12916">
        <ele>1427</ele>
        <time>2022-07-19T07:39:05Z</time>
      </trkpt>
      <trkpt lat="45.31995" lon="6.12934">
        <ele>1436</ele>
        <time>2022-07-19T07:40:05Z</time>
      </trkpt>
      <trkpt lat="45.31998" lon="6.12981">
        <ele>1445.01</ele>
        <time>2022-07-19T07:41:00Z</time>
      </trkpt>
      <trkpt lat="45.31999" lon="6.12981">
        <ele>1445</ele>
        <time>2022-07-19T07:41:11Z</time>
      </trkpt>
      <trkpt lat="45.31995" lon="6.12987">
        <ele>1446</ele>
        <time>2022-07-19T07:41:14Z</time>
      </trkpt>
      <trkpt lat="45.3197" lon="6.13076">
        <ele>1464.05</ele>
        <time>2022-07-19T07:43:30Z</time>
      </trkpt>
      <trkpt lat="45.3197" lon="6.13078">
        <ele>1465</ele>
        <time>2022-07-19T07:43:42Z</time>
      </trkpt>
      <trkpt lat="45.31969" lon="6.13078">
        <ele>1465</ele>
        <time>2022-07-19T07:43:43Z</time>
      </trkpt>
      <trkpt lat="45.31966" lon="6.13184">
        <ele>1494</ele>
        <time>2022-07-19T07:48:24Z</time>
      </trkpt>
      <trkpt lat="45.31945" lon="6.13211">
        <ele>1502.3</ele>
        <time>2022-07-19T07:49:15Z</time>
      </trkpt>
      <trkpt lat="45.31945" lon="6.13213">
        <ele>1501</ele>
        <time>2022-07-19T07:49:23Z</time>
      </trkpt>
      <trkpt lat="45.31945" lon="6.13207">
        <ele>1502</ele>
        <time>2022-07-19T07:49:24Z</time>
      </trkpt>
      <trkpt lat="45.31955" lon="6.13239">
        <ele>1518</ele>
        <time>2022-07-19T07:51:11Z</time>
      </trkpt>
      <trkpt lat="45.31966" lon="6.13245">
        <ele>1519.1</ele>
        <time>2022-07-19T07:51:15Z</time>
      </trkpt>
      <trkpt lat="45.31966" lon="6.13246">
        <ele>1518</ele>
        <time>2022-07-19T07:51:23Z</time>
      </trkpt>
      <trkpt lat="45.3198" lon="6.13272">
        <ele>1524</ele>
        <time>2022-07-19T07:52:11Z</time>
      </trkpt>
      <trkpt lat="45.32005" lon="6.13273">
        <ele>1530</ele>
        <time>2022-07-19T07:53:11Z</time>
      </trkpt>
      <trkpt lat="45.3199" lon="6.13286">
        <ele>1413</ele>
        <time>2022-07-19T07:54:41Z</time>
      </trkpt>
      <trkpt lat="45.32013" lon="6.13273">
        <ele>1559</ele>
        <time>2022-07-19T07:55:41Z</time>
      </trkpt>
      <trkpt lat="45.3201" lon="6.13291">
        <ele>1533</ele>
        <time>2022-07-19T07:56:41Z</time>
      </trkpt>
      <trkpt lat="45.32011" lon="6.13308">
        <ele>1542</ele>
        <time>2022-07-19T07:57:41Z</time>
      </trkpt>
      <trkpt lat="45.3201" lon="6.13344">
        <ele>1550</ele>
        <time>2022-07-19T07:58:41Z</time>
      </trkpt>
      <trkpt lat="45.3202" lon="6.13357">
        <ele>1557.66</ele>
        <time>2022-07-19T07:59:15Z</time>
      </trkpt>
      <trkpt lat="45.32021" lon="6.13358">
        <ele>1557</ele>
        <time>2022-07-19T07:59:17Z</time>
      </trkpt>
      <trkpt lat="45.32002" lon="6.13361">
        <ele>1559</ele>
        <time>2022-07-19T07:59:41Z</time>
      </trkpt>
      <trkpt lat="45.31972" lon="6.13349">
        <ele>1567</ele>
        <time>2022-07-19T08:00:41Z</time>
      </trkpt>
      <trkpt lat="45.31883" lon="6.13344">
        <ele>1577.02</ele>
        <time>2022-07-19T08:03:15Z</time>
      </trkpt>
      <trkpt lat="45.31884" lon="6.13346">
        <ele>1577</ele>
        <time>2022-07-19T08:03:17Z</time>
      </trkpt>
      <trkpt lat="45.31884" lon="6.13346">
        <ele>1577</ele>
        <time>2022-07-19T08:03:18Z</time>
      </trkpt>
      <trkpt lat="45.31845" lon="6.13332">
        <ele>1583</ele>
        <time>2022-07-19T08:04:17Z</time>
      </trkpt>
      <trkpt lat="45.3182" lon="6.13329">
        <ele>1591.58</ele>
        <time>2022-07-19T08:05:15Z</time>
      </trkpt>
      <trkpt lat="45.3182" lon="6.1333">
        <ele>1593</ele>
        <time>2022-07-19T08:05:29Z</time>
      </trkpt>
      <trkpt lat="45.31811" lon="6.13306">
        <ele>1596</ele>
        <time>2022-07-19T08:06:28Z</time>
      </trkpt>
      <trkpt lat="45.31788" lon="6.13279">
        <ele>1602</ele>
        <time>2022-07-19T08:07:28Z</time>
      </trkpt>
      <trkpt lat="45.31764" lon="6.13259">
        <ele>1604</ele>
        <time>2022-07-19T08:08:27Z</time>
      </trkpt>
      <trkpt lat="45.31746" lon="6.13243">
        <ele>1611.04</ele>
        <time>2022-07-19T08:09:00Z</time>
      </trkpt>
      <trkpt lat="45.31746" lon="6.13243">
        <ele>1610</ele>
        <time>2022-07-19T08:09:14Z</time>
      </trkpt>
      <trkpt lat="45.31746" lon="6.13239">
        <ele>1611</ele>
        <time>2022-07-19T08:09:26Z</time>
      </trkpt>
      <trkpt lat="45.31738" lon="6.13218">
        <ele>1619</ele>
        <time>2022-07-19T08:10:26Z</time>
      </trkpt>
      <trkpt lat="45.31715" lon="6.13207">
        <ele>1625.68</ele>
        <time>2022-07-19T08:11:00Z</time>
      </trkpt>
      <trkpt lat="45.31715" lon="6.13207">
        <ele>1626</ele>
        <time>2022-07-19T08:11:14Z</time>
      </trkpt>
      <trkpt lat="45.3171" lon="6.13205">
        <ele>1626</ele>
        <time>2022-07-19T08:11:25Z</time>
      </trkpt>
      <trkpt lat="45.3168" lon="6.13206">
        <ele>1634</ele>
        <time>2022-07-19T08:12:24Z</time>
      </trkpt>
      <trkpt lat="45.3164" lon="6.13201">
        <ele>1639</ele>
        <time>2022-07-19T08:13:24Z</time>
      </trkpt>
      <trkpt lat="45.3161" lon="6.13205">
        <ele>1674.68</ele>
        <time>2022-07-19T08:14:15Z</time>
      </trkpt>
      <trkpt lat="45.31611" lon="6.13205">
        <ele>1674</ele>
        <time>2022-07-19T08:14:17Z</time>
      </trkpt>
      <trkpt lat="45.31609" lon="6.13195">
        <ele>1666</ele>
        <time>2022-07-19T08:14:23Z</time>
      </trkpt>
      <trkpt lat="45.31572" lon="6.13182">
        <ele>1655</ele>
        <time>2022-07-19T08:15:23Z</time>
      </trkpt>
      <trkpt lat="45.31566" lon="6.13153">
        <ele>1657.49</ele>
        <time>2022-07-19T08:16:15Z</time>
      </trkpt>
      <trkpt lat="45.31567" lon="6.13155">
        <ele>1656</ele>
        <time>2022-07-19T08:16:18Z</time>
      </trkpt>
      <trkpt lat="45.31586" lon="6.1313">
        <ele>1659</ele>
        <time>2022-07-19T08:16:47Z</time>
      </trkpt>
      <trkpt lat="45.31606" lon="6.13096">
        <ele>1663</ele>
        <time>2022-07-19T08:18:15Z</time>
      </trkpt>
      <trkpt lat="45.31601" lon="6.1308">
        <ele>1661</ele>
        <time>2022-07-19T08:19:14Z</time>
      </trkpt>
      <trkpt lat="45.31593" lon="6.13018">
        <ele>1662.4</ele>
        <time>2022-07-19T08:20:00Z</time>
      </trkpt>
      <trkpt lat="45.31593" lon="6.13019">
        <ele>1662</ele>
        <time>2022-07-19T08:20:12Z</time>
      </trkpt>
      <trkpt lat="45.31593" lon="6.13018">
        <ele>1660</ele>
        <time>2022-07-19T08:20:14Z</time>
      </trkpt>
      <trkpt lat="45.31579" lon="6.12969">
        <ele>1625</ele>
        <time>2022-07-19T08:21:13Z</time>
      </trkpt>
      <trkpt lat="45.3157" lon="6.12949">
        <ele>1659.94</ele>
        <time>2022-07-19T08:22:00Z</time>
      </trkpt>
      <trkpt lat="45.31571" lon="6.12951">
        <ele>1661</ele>
        <time>2022-07-19T08:22:12Z</time>
      </trkpt>
      <trkpt lat="45.31577" lon="6.1294">
        <ele>1658</ele>
        <time>2022-07-19T08:36:11Z</time>
      </trkpt>
      <trkpt lat="45.31575" lon="6.12952">
        <ele>1658</ele>
        <time>2022-07-19T08:39:48Z</time>
      </trkpt>
      <trkpt lat="45.31569" lon="6.12956">
        <ele>1656</ele>
        <time>2022-07-19T08:40:47Z</time>
      </trkpt>
      <trkpt lat="45.31566" lon="6.12941">
        <ele>1657</ele>
        <time>2022-07-19T08:41:47Z</time>
      </trkpt>
      <trkpt lat="45.31556" lon="6.129">
        <ele>1662</ele>
        <time>2022-07-19T08:42:46Z</time>
      </trkpt>
      <trkpt lat="45.31538" lon="6.1288">
        <ele>1678</ele>
        <time>2022-07-19T08:43:46Z</time>
      </trkpt>
      <trkpt lat="45.31545" lon="6.12843">
        <ele>1681</ele>
        <time>2022-07-19T08:44:47Z</time>
      </trkpt>
      <trkpt lat="45.31544" lon="6.1279">
        <ele>1682.07</ele>
        <time>2022-07-19T08:45:30Z</time>
      </trkpt>
      <trkpt lat="45.31544" lon="6.12793">
        <ele>1683</ele>
        <time>2022-07-19T08:45:38Z</time>
      </trkpt>
      <trkpt lat="45.31557" lon="6.12785">
        <ele>1682</ele>
        <time>2022-07-19T08:46:10Z</time>
      </trkpt>
      <trkpt lat="45.31572" lon="6.12726">
        <ele>1694.39</ele>
        <time>2022-07-19T08:47:30Z</time>
      </trkpt>
      <trkpt lat="45.31574" lon="6.1273">
        <ele>1694</ele>
        <time>2022-07-19T08:47:36Z</time>
      </trkpt>
      <trkpt lat="45.31572" lon="6.12727">
        <ele>1695</ele>
        <time>2022-07-19T08:47:39Z</time>
      </trkpt>
      <trkpt lat="45.31576" lon="6.12705">
        <ele>1701</ele>
        <time>2022-07-19T08:48:36Z</time>
      </trkpt>
      <trkpt lat="45.31575" lon="6.12644">
        <ele>1714</ele>
        <time>2022-07-19T08:50:34Z</time>
      </trkpt>
      <trkpt lat="45.31576" lon="6.12626">
        <ele>1720</ele>
        <time>2022-07-19T08:51:33Z</time>
      </trkpt>
      <trkpt lat="45.31571" lon="6.12601">
        <ele>1729</ele>
        <time>2022-07-19T08:52:33Z</time>
      </trkpt>
      <trkpt lat="45.31583" lon="6.12582">
        <ele>1731.5</ele>
        <time>2022-07-19T08:53:15Z</time>
      </trkpt>
      <trkpt lat="45.31583" lon="6.12584">
        <ele>1733</ele>
        <time>2022-07-19T08:53:29Z</time>
      </trkpt>
      <trkpt lat="45.31578" lon="6.12585">
        <ele>1734</ele>
        <time>2022-07-19T08:53:34Z</time>
      </trkpt>
      <trkpt lat="45.31573" lon="6.12565">
        <ele>1739</ele>
        <time>2022-07-19T08:54:33Z</time>
      </trkpt>
      <trkpt lat="45.31568" lon="6.12561">
        <ele>1736.46</ele>
        <time>2022-07-19T08:55:15Z</time>
      </trkpt>
      <trkpt lat="45.31568" lon="6.12562">
        <ele>1737</ele>
        <time>2022-07-19T08:55:29Z</time>
      </trkpt>
      <trkpt lat="45.31569" lon="6.12561">
        <ele>1742</ele>
        <time>2022-07-19T08:55:32Z</time>
      </trkpt>
      <trkpt lat="45.31565" lon="6.12503">
        <ele>1763</ele>
        <time>2022-07-19T08:57:25Z</time>
      </trkpt>
      <trkpt lat="45.31563" lon="6.12475">
        <ele>1771</ele>
        <time>2022-07-19T08:58:24Z</time>
      </trkpt>
      <trkpt lat="45.31555" lon="6.12457">
        <ele>1775</ele>
        <time>2022-07-19T08:59:24Z</time>
      </trkpt>
      <trkpt lat="45.31544" lon="6.12417">
        <ele>1781.3</ele>
        <time>2022-07-19T09:00:15Z</time>
      </trkpt>
      <trkpt lat="45.31544" lon="6.12417">
        <ele>1781</ele>
        <time>2022-07-19T09:00:21Z</time>
      </trkpt>
      <trkpt lat="45.31542" lon="6.12416">
        <ele>1782</ele>
        <time>2022-07-19T09:00:23Z</time>
      </trkpt>
      <trkpt lat="45.31535" lon="6.12419">
        <ele>1785</ele>
        <time>2022-07-19T09:01:26Z</time>
      </trkpt>
      <trkpt lat="45.31521" lon="6.12389">
        <ele>1791.3</ele>
        <time>2022-07-19T09:02:15Z</time>
      </trkpt>
      <trkpt lat="45.31522" lon="6.12389">
        <ele>1791</ele>
        <time>2022-07-19T09:02:22Z</time>
      </trkpt>
      <trkpt lat="45.31527" lon="6.12345">
        <ele>1792</ele>
        <time>2022-07-19T09:03:16Z</time>
      </trkpt>
      <trkpt lat="45.31543" lon="6.12301">
        <ele>1798</ele>
        <time>2022-07-19T09:04:17Z</time>
      </trkpt>
      <trkpt lat="45.31558" lon="6.12252">
        <ele>1800</ele>
        <time>2022-07-19T09:05:15Z</time>
      </trkpt>
      <trkpt lat="45.31558" lon="6.12252">
        <ele>1801.32</ele>
        <time>2022-07-19T09:05:15Z</time>
      </trkpt>
      <trkpt lat="45.31561" lon="6.12253">
        <ele>1801</ele>
        <time>2022-07-19T09:05:16Z</time>
      </trkpt>
      <trkpt lat="45.3156" lon="6.12203">
        <ele>1803</ele>
        <time>2022-07-19T09:06:16Z</time>
      </trkpt>
      <trkpt lat="45.31548" lon="6.12145">
        <ele>1811.36</ele>
        <time>2022-07-19T09:07:15Z</time>
      </trkpt>
      <trkpt lat="45.31549" lon="6.12145">
        <ele>1810</ele>
        <time>2022-07-19T09:07:15Z</time>
      </trkpt>
      <trkpt lat="45.31556" lon="6.12119">
        <ele>1814</ele>
        <time>2022-07-19T09:08:14Z</time>
      </trkpt>
      <trkpt lat="45.31568" lon="6.12081">
        <ele>1818</ele>
        <time>2022-07-19T09:09:14Z</time>
      </trkpt>
      <trkpt lat="45.31575" lon="6.12037">
        <ele>1823</ele>
        <time>2022-07-19T09:10:13Z</time>
      </trkpt>
      <trkpt lat="45.31554" lon="6.12031">
        <ele>1825</ele>
        <time>2022-07-19T09:15:02Z</time>
      </trkpt>
      <trkpt lat="45.31593" lon="6.12035">
        <ele>1845</ele>
        <time>2022-07-19T09:16:02Z</time>
      </trkpt>
      <trkpt lat="45.31595" lon="6.12009">
        <ele>1823.92</ele>
        <time>2022-07-19T09:17:45Z</time>
      </trkpt>
      <trkpt lat="45.31595" lon="6.12011">
        <ele>1824</ele>
        <time>2022-07-19T09:17:57Z</time>
      </trkpt>
      <trkpt lat="45.31596" lon="6.12009">
        <ele>1824</ele>
        <time>2022-07-19T09:17:58Z</time>
      </trkpt>
      <trkpt lat="45.3162" lon="6.11962">
        <ele>1844</ele>
        <time>2022-07-19T09:18:57Z</time>
      </trkpt>
      <trkpt lat="45.31615" lon="6.11896">
        <ele>1846.6</ele>
        <time>2022-07-19T09:19:45Z</time>
      </trkpt>
      <trkpt lat="45.31616" lon="6.11897">
        <ele>1846</ele>
        <time>2022-07-19T09:19:57Z</time>
      </trkpt>
      <trkpt lat="45.31616" lon="6.11896">
        <ele>1845</ele>
        <time>2022-07-19T09:19:58Z</time>
      </trkpt>
      <trkpt lat="45.31611" lon="6.1183">
        <ele>1843</ele>
        <time>2022-07-19T09:20:56Z</time>
      </trkpt>
      <trkpt lat="45.31624" lon="6.11756">
        <ele>1844.08</ele>
        <time>2022-07-19T09:21:45Z</time>
      </trkpt>
      <trkpt lat="45.31624" lon="6.1176">
        <ele>1844</ele>
        <time>2022-07-19T09:21:55Z</time>
      </trkpt>
      <trkpt lat="45.31625" lon="6.11758">
        <ele>1844</ele>
        <time>2022-07-19T09:21:58Z</time>
      </trkpt>
      <trkpt lat="45.31641" lon="6.1169">
        <ele>1845</ele>
        <time>2022-07-19T09:22:54Z</time>
      </trkpt>
      <trkpt lat="45.31633" lon="6.11677">
        <ele>1839.03</ele>
        <time>2022-07-19T09:23:45Z</time>
      </trkpt>
      <trkpt lat="45.31633" lon="6.1168">
        <ele>1839</ele>
        <time>2022-07-19T09:23:57Z</time>
      </trkpt>
      <trkpt lat="45.31633" lon="6.11677">
        <ele>1840</ele>
        <time>2022-07-19T09:23:59Z</time>
      </trkpt>
      <trkpt lat="45.31626" lon="6.11629">
        <ele>1852</ele>
        <time>2022-07-19T09:25:46Z</time>
      </trkpt>
      <trkpt lat="45.31616" lon="6.11623">
        <ele>1859</ele>
        <time>2022-07-19T09:27:45Z</time>
      </trkpt>
      <trkpt lat="45.31608" lon="6.11612">
        <ele>1874</ele>
        <time>2022-07-19T09:28:45Z</time>
      </trkpt>
      <trkpt lat="45.31614" lon="6.11596">
        <ele>1883</ele>
        <time>2022-07-19T09:29:48Z</time>
      </trkpt>
      <trkpt lat="45.31624" lon="6.11552">
        <ele>1887</ele>
        <time>2022-07-19T09:30:47Z</time>
      </trkpt>
      <trkpt lat="45.31615" lon="6.11537">
        <ele>1892.2</ele>
        <time>2022-07-19T09:31:30Z</time>
      </trkpt>
      <trkpt lat="45.31615" lon="6.11538">
        <ele>1892</ele>
        <time>2022-07-19T09:31:38Z</time>
      </trkpt>
      <trkpt lat="45.31621" lon="6.1154">
        <ele>1891</ele>
        <time>2022-07-19T09:31:47Z</time>
      </trkpt>
      <trkpt lat="45.31667" lon="6.11451">
        <ele>1894.74</ele>
        <time>2022-07-19T09:33:30Z</time>
      </trkpt>
      <trkpt lat="45.31668" lon="6.11452">
        <ele>1894</ele>
        <time>2022-07-19T09:33:38Z</time>
      </trkpt>
      <trkpt lat="45.31693" lon="6.11435">
        <ele>1892</ele>
        <time>2022-07-19T09:34:37Z</time>
      </trkpt>
      <trkpt lat="45.31693" lon="6.11395">
        <ele>1896</ele>
        <time>2022-07-19T09:36:33Z</time>
      </trkpt>
      <trkpt lat="45.31707" lon="6.11346">
        <ele>1892</ele>
        <time>2022-07-19T09:37:32Z</time>
      </trkpt>
      <trkpt lat="45.31715" lon="6.11323">
        <ele>1887.12</ele>
        <time>2022-07-19T09:38:30Z</time>
      </trkpt>
      <trkpt lat="45.31715" lon="6.11324">
        <ele>1887</ele>
        <time>2022-07-19T09:38:30Z</time>
      </trkpt>
      <trkpt lat="45.31714" lon="6.11326">
        <ele>1884</ele>
        <time>2022-07-19T09:38:32Z</time>
      </trkpt>
      <trkpt lat="45.31716" lon="6.11294">
        <ele>1876</ele>
        <time>2022-07-19T09:39:31Z</time>
      </trkpt>
      <trkpt lat="45.31736" lon="6.11288">
        <ele>1865</ele>
        <time>2022-07-19T09:40:30Z</time>
      </trkpt>
      <trkpt lat="45.31736" lon="6.11288">
        <ele>1865</ele>
        <time>2022-07-19T09:40:30Z</time>
      </trkpt>
      <trkpt lat="45.31736" lon="6.11288">
        <ele>1864.3</ele>
        <time>2022-07-19T09:40:30Z</time>
      </trkpt>
      <trkpt lat="45.31753" lon="6.11242">
        <ele>1851</ele>
        <time>2022-07-19T09:41:29Z</time>
      </trkpt>
      <trkpt lat="45.31782" lon="6.11179">
        <ele>1841</ele>
        <time>2022-07-19T09:42:29Z</time>
      </trkpt>
      <trkpt lat="45.31783" lon="6.11177">
        <ele>1839.03</ele>
        <time>2022-07-19T09:42:30Z</time>
      </trkpt>
      <trkpt lat="45.31783" lon="6.11178">
        <ele>1840</ele>
        <time>2022-07-19T09:42:31Z</time>
      </trkpt>
      <trkpt lat="45.31798" lon="6.1114">
        <ele>1826</ele>
        <time>2022-07-19T09:43:28Z</time>
      </trkpt>
      <trkpt lat="45.31824" lon="6.1106">
        <ele>1820</ele>
        <time>2022-07-19T09:44:27Z</time>
      </trkpt>
      <trkpt lat="45.31826" lon="6.11055">
        <ele>1818.89</ele>
        <time>2022-07-19T09:44:30Z</time>
      </trkpt>
      <trkpt lat="45.31827" lon="6.11055">
        <ele>1820</ele>
        <time>2022-07-19T09:44:32Z</time>
      </trkpt>
      <trkpt lat="45.31836" lon="6.1103">
        <ele>1823</ele>
        <time>2022-07-19T09:45:34Z</time>
      </trkpt>
      <trkpt lat="45.31836" lon="6.11031">
        <ele>1823.92</ele>
        <time>2022-07-19T09:46:30Z</time>
      </trkpt>
      <trkpt lat="45.31836" lon="6.11033">
        <ele>1824</ele>
        <time>2022-07-19T09:46:32Z</time>
      </trkpt>
      <trkpt lat="45.31829" lon="6.1105">
        <ele>1823</ele>
        <time>2022-07-19T09:47:19Z</time>
      </trkpt>
      <trkpt lat="45.31783" lon="6.1112">
        <ele>1820</ele>
        <time>2022-07-19T09:48:18Z</time>
      </trkpt>
      <trkpt lat="45.31767" lon="6.11132">
        <ele>1818.89</ele>
        <time>2022-07-19T09:48:30Z</time>
      </trkpt>
      <trkpt lat="45.31768" lon="6.11133">
        <ele>1819</ele>
        <time>2022-07-19T09:48:33Z</time>
      </trkpt>
      <trkpt lat="45.31724" lon="6.11126">
        <ele>1806</ele>
        <time>2022-07-19T09:49:18Z</time>
      </trkpt>
      <trkpt lat="45.31732" lon="6.11096">
        <ele>1796</ele>
        <time>2022-07-19T09:50:17Z</time>
      </trkpt>
      <trkpt lat="45.31717" lon="6.11091">
        <ele>1791.3</ele>
        <time>2022-07-19T09:50:30Z</time>
      </trkpt>
      <trkpt lat="45.31717" lon="6.11092">
        <ele>1792</ele>
        <time>2022-07-19T09:50:33Z</time>
      </trkpt>
      <trkpt lat="45.31699" lon="6.11063">
        <ele>1778</ele>
        <time>2022-07-19T09:51:16Z</time>
      </trkpt>
      <trkpt lat="45.31685" lon="6.1102">
        <ele>1759</ele>
        <time>2022-07-19T09:52:15Z</time>
      </trkpt>
      <trkpt lat="45.31692" lon="6.10932">
        <ele>1748.88</ele>
        <time>2022-07-19T09:53:00Z</time>
      </trkpt>
      <trkpt lat="45.31692" lon="6.10933">
        <ele>1748</ele>
        <time>2022-07-19T09:53:10Z</time>
      </trkpt>
      <trkpt lat="45.31689" lon="6.10928">
        <ele>1747</ele>
        <time>2022-07-19T09:53:15Z</time>
      </trkpt>
      <trkpt lat="45.31668" lon="6.10872">
        <ele>1737</ele>
        <time>2022-07-19T09:54:14Z</time>
      </trkpt>
      <trkpt lat="45.31631" lon="6.10827">
        <ele>1726.54</ele>
        <time>2022-07-19T09:55:00Z</time>
      </trkpt>
      <trkpt lat="45.31631" lon="6.10828">
        <ele>1726</ele>
        <time>2022-07-19T09:55:10Z</time>
      </trkpt>
      <trkpt lat="45.31588" lon="6.10784">
        <ele>1720</ele>
        <time>2022-07-19T09:56:07Z</time>
      </trkpt>
      <trkpt lat="45.31561" lon="6.10829">
        <ele>1699.32</ele>
        <time>2022-07-19T09:57:00Z</time>
      </trkpt>
      <trkpt lat="45.31567" lon="6.10846">
        <ele>1696</ele>
        <time>2022-07-19T09:57:06Z</time>
      </trkpt>
      <trkpt lat="45.31561" lon="6.10829">
        <ele>1699</ele>
        <time>2022-07-19T09:57:11Z</time>
      </trkpt>
      <trkpt lat="45.3156" lon="6.10828">
        <ele>1703</ele>
        <time>2022-07-19T09:58:06Z</time>
      </trkpt>
      <trkpt lat="45.31589" lon="6.10871">
        <ele>1718</ele>
        <time>2022-07-19T10:05:54Z</time>
      </trkpt>
      <trkpt lat="45.31561" lon="6.10827">
        <ele>1724</ele>
        <time>2022-07-19T10:17:10Z</time>
      </trkpt>
      <trkpt lat="45.31557" lon="6.10822">
        <ele>1717</ele>
        <time>2022-07-19T10:18:40Z</time>
      </trkpt>
      <trkpt lat="45.31569" lon="6.10849">
        <ele>1720</ele>
        <time>2022-07-19T10:20:36Z</time>
      </trkpt>
      <trkpt lat="45.31566" lon="6.10842">
        <ele>1709.21</ele>
        <time>2022-07-19T10:25:00Z</time>
      </trkpt>
    </trkseg>
  </trk>
</gpx>